createdAt,value
2018-12-18T00:00:11.278Z,39.33
2018-12-18T00:00:48.255Z,38.53
2018-12-18T00:01:24.397Z,38.78
2018-12-18T00:02:01.005Z,40.60
2018-12-18T00:02:37.195Z,36.25
2018-12-18T00:03:14.065Z,37.80
2018-12-18T00:03:50.123Z,38.17
2018-12-18T00:04:26.167Z,38.25
2018-12-18T00:05:06.459Z,38.53
2018-12-18T00:05:42.891Z,38.63
2018-12-18T00:06:18.906Z,38.60
2018-12-18T00:06:54.983Z,39.58
2018-12-18T00:07:30.995Z,39.00
2018-12-18T00:08:07.855Z,38.67
2018-12-18T00:08:44.221Z,40.75
2018-12-18T00:09:20.487Z,38.05
2018-12-18T00:09:56.589Z,39.30
2018-12-18T00:10:38.738Z,42.33
2018-12-18T00:11:14.797Z,39.18
2018-12-18T00:11:50.839Z,37.40
2018-12-18T00:12:27.281Z,38.25
2018-12-18T00:13:03.339Z,39.50
2018-12-18T00:13:39.811Z,40.03
2018-12-18T00:14:16.527Z,39.88
2018-12-18T00:14:52.803Z,40.90
2018-12-18T00:15:28.983Z,40.55
2018-12-18T00:16:05.014Z,39.25
2018-12-18T00:16:41.019Z,40.15
2018-12-18T00:17:17.460Z,40.58
2018-12-18T00:17:53.937Z,39.10
2018-12-18T00:18:30.426Z,41.18
2018-12-18T00:19:06.919Z,40.08
2018-12-18T00:19:43.347Z,39.15
2018-12-18T00:20:19.631Z,38.50
2018-12-18T00:20:55.719Z,39.20
2018-12-18T00:21:31.793Z,40.03
2018-12-18T00:22:08.963Z,41.70
2018-12-18T00:22:45.371Z,41.13
2018-12-18T00:23:21.403Z,39.75
2018-12-18T00:23:58.343Z,39.75
2018-12-18T00:24:34.353Z,40.58
2018-12-18T00:25:18.047Z,41.40
2018-12-18T00:25:54.302Z,38.65
2018-12-18T00:26:30.347Z,40.50
2018-12-18T00:27:07.104Z,37.50
2018-12-18T00:27:43.259Z,38.17
2018-12-18T00:28:19.916Z,38.80
2018-12-18T00:28:56.386Z,38.67
2018-12-18T00:29:32.475Z,38.35
2018-12-18T00:30:15.031Z,38.65
2018-12-18T00:30:51.510Z,38.80
2018-12-18T00:31:28.007Z,40.10
2018-12-18T00:32:05.141Z,38.00
2018-12-18T00:32:41.151Z,37.53
2018-12-18T00:33:17.181Z,40.83
2018-12-18T00:33:53.871Z,39.18
2018-12-18T00:34:31.161Z,38.17
2018-12-18T00:35:08.087Z,39.65
2018-12-18T00:35:44.923Z,39.65
2018-12-18T00:36:21.041Z,38.38
2018-12-18T00:36:57.153Z,39.58
2018-12-18T00:37:33.599Z,37.60
2018-12-18T00:38:09.639Z,40.63
2018-12-18T00:38:45.742Z,39.08
2018-12-18T00:39:21.794Z,39.92
2018-12-18T00:39:57.843Z,37.42
2018-12-18T00:40:33.909Z,38.75
2018-12-18T00:41:10.339Z,38.00
2018-12-18T00:41:47.315Z,38.02
2018-12-18T00:42:23.815Z,39.00
2018-12-18T00:43:00.713Z,37.25
2018-12-18T00:43:37.498Z,39.10
2018-12-18T00:44:14.541Z,37.63
2018-12-18T00:44:51.591Z,39.03
2018-12-18T00:45:28.059Z,36.53
2018-12-18T00:46:04.515Z,37.83
2018-12-18T00:46:40.787Z,40.52
2018-12-18T00:47:18.035Z,36.90
2018-12-18T00:47:54.407Z,37.83
2018-12-18T00:48:30.929Z,36.50
2018-12-18T00:49:06.959Z,39.10
2018-12-18T00:49:43.003Z,38.00
2018-12-18T00:50:19.443Z,38.80
2018-12-18T00:50:55.491Z,39.58
2018-12-18T00:51:31.549Z,38.92
2018-12-18T00:52:07.604Z,36.85
2018-12-18T00:52:43.659Z,38.08
2018-12-18T00:53:19.713Z,37.05
2018-12-18T00:53:56.567Z,37.67
2018-12-18T00:54:32.590Z,36.90
2018-12-18T00:55:09.397Z,38.35
2018-12-18T00:55:45.407Z,38.28
2018-12-18T00:56:21.458Z,38.02
2018-12-18T00:56:57.479Z,36.40
2018-12-18T00:57:33.879Z,38.38
2018-12-18T00:58:10.367Z,36.65
2018-12-18T00:58:46.815Z,36.75
2018-12-18T00:59:22.907Z,39.20
2018-12-18T00:59:59.673Z,38.20
2018-12-18T01:00:36.624Z,39.00
2018-12-18T01:01:13.099Z,38.58
2018-12-18T01:01:54.998Z,36.08
2018-12-18T01:02:31.003Z,37.50
2018-12-18T01:03:07.841Z,37.00
2018-12-18T01:03:45.003Z,38.15
2018-12-18T01:04:21.170Z,37.83
2018-12-18T01:04:57.250Z,38.35
2018-12-18T01:05:35.567Z,36.38
2018-12-18T01:06:12.436Z,36.98
2018-12-18T01:06:48.479Z,35.78
2018-12-18T01:07:24.686Z,37.65
2018-12-18T01:08:01.267Z,36.98
2018-12-18T01:08:37.315Z,37.53
2018-12-18T01:09:13.924Z,37.40
2018-12-18T01:09:50.387Z,36.17
2018-12-18T01:10:26.756Z,37.63
2018-12-18T01:11:04.551Z,37.90
2018-12-18T01:11:40.610Z,39.83
2018-12-18T01:12:16.672Z,37.42
2018-12-18T01:12:52.961Z,37.30
2018-12-18T01:13:29.388Z,38.00
2018-12-18T01:14:05.842Z,37.88
2018-12-18T01:14:42.259Z,38.42
2018-12-18T01:15:18.326Z,37.50
2018-12-18T01:15:54.743Z,34.05
2018-12-18T01:16:31.206Z,37.53
2018-12-18T01:17:08.056Z,36.63
2018-12-18T01:17:44.275Z,36.88
2018-12-18T01:18:20.582Z,36.95
2018-12-18T01:18:56.968Z,36.65
2018-12-18T01:19:33.816Z,38.73
2018-12-18T01:20:09.860Z,37.03
2018-12-18T01:20:45.909Z,39.38
2018-12-18T01:21:22.396Z,36.88
2018-12-18T01:21:58.860Z,37.00
2018-12-18T01:22:34.892Z,35.50
2018-12-18T01:23:10.912Z,36.95
2018-12-18T01:23:46.964Z,38.88
2018-12-18T01:24:23.000Z,36.40
2018-12-18T01:24:59.027Z,37.63
2018-12-18T01:25:35.471Z,36.70
2018-12-18T01:26:11.496Z,35.52
2018-12-18T01:26:47.532Z,36.05
2018-12-18T01:27:23.574Z,36.35
2018-12-18T01:27:59.592Z,35.55
2018-12-18T01:28:42.219Z,37.03
2018-12-18T01:29:18.647Z,35.43
2018-12-18T01:29:54.691Z,36.38
2018-12-18T01:30:31.160Z,36.60
2018-12-18T01:31:07.710Z,36.70
2018-12-18T01:31:43.782Z,36.70
2018-12-18T01:32:19.838Z,34.00
2018-12-18T01:32:56.244Z,37.78
2018-12-18T01:33:32.270Z,36.08
2018-12-18T01:34:08.718Z,37.45
2018-12-18T01:34:44.762Z,36.65
2018-12-18T01:35:20.784Z,36.65
2018-12-18T01:35:56.833Z,34.10
2018-12-18T01:36:32.880Z,35.98
2018-12-18T01:37:08.954Z,36.80
2018-12-18T01:37:44.994Z,36.10
2018-12-18T01:38:21.040Z,36.63
2018-12-18T01:38:57.119Z,37.35
2018-12-18T01:39:33.643Z,37.17
2018-12-18T01:40:10.494Z,36.05
2018-12-18T01:40:46.628Z,35.50
2018-12-18T01:41:22.653Z,34.75
2018-12-18T01:41:58.711Z,36.05
2018-12-18T01:42:34.842Z,37.13
2018-12-18T01:43:10.887Z,35.52
2018-12-18T01:43:46.914Z,37.00
2018-12-18T01:44:23.352Z,35.80
2018-12-18T01:44:59.792Z,36.58
2018-12-18T01:45:35.840Z,34.30
2018-12-18T01:46:11.984Z,35.28
2018-12-18T01:46:48.459Z,36.08
2018-12-18T01:47:24.561Z,35.25
2018-12-18T01:48:01.056Z,36.13
2018-12-18T01:48:39.137Z,34.80
2018-12-18T01:49:15.902Z,35.43
2018-12-18T01:49:51.998Z,36.65
2018-12-18T01:50:28.058Z,35.95
2018-12-18T01:51:04.098Z,36.05
2018-12-18T01:51:40.128Z,34.88
2018-12-18T01:52:16.602Z,36.38
2018-12-18T01:52:53.341Z,34.53
2018-12-18T01:53:30.259Z,36.00
2018-12-18T01:54:07.107Z,34.55
2018-12-18T01:54:43.191Z,36.35
2018-12-18T01:55:19.244Z,34.33
2018-12-18T01:55:55.283Z,35.92
2018-12-18T01:56:31.326Z,35.20
2018-12-18T01:57:07.367Z,33.20
2018-12-18T01:57:43.426Z,32.75
2018-12-18T01:58:19.835Z,34.45
2018-12-18T01:58:55.895Z,34.60
2018-12-18T01:59:32.368Z,36.50
2018-12-18T02:00:09.282Z,33.65
2018-12-18T02:00:46.099Z,34.25
2018-12-18T02:01:22.175Z,35.35
2018-12-18T02:01:58.235Z,35.38
2018-12-18T02:02:34.285Z,35.48
2018-12-18T02:03:10.723Z,36.17
2018-12-18T02:03:46.749Z,36.17
2018-12-18T02:04:22.823Z,35.55
2018-12-18T02:04:58.835Z,33.25
2018-12-18T02:05:35.257Z,34.48
2018-12-18T02:06:11.609Z,35.58
2018-12-18T02:06:47.979Z,34.18
2018-12-18T02:07:24.043Z,34.38
2018-12-18T02:08:00.123Z,33.28
2018-12-18T02:08:36.164Z,34.27
2018-12-18T02:09:12.536Z,34.50
2018-12-18T02:09:48.646Z,34.48
2018-12-18T02:10:24.918Z,34.25
2018-12-18T02:11:00.973Z,35.23
2018-12-18T02:11:37.039Z,36.08
2018-12-18T02:12:13.081Z,34.55
2018-12-18T02:12:49.123Z,35.23
2018-12-18T02:13:25.871Z,34.95
2018-12-18T02:14:02.347Z,35.33
2018-12-18T02:14:38.407Z,36.30
2018-12-18T02:15:14.837Z,35.08
2018-12-18T02:15:50.848Z,34.80
2018-12-18T02:16:26.919Z,36.93
2018-12-18T02:17:02.980Z,35.63
2018-12-18T02:17:39.009Z,35.80
2018-12-18T02:18:15.072Z,34.00
2018-12-18T02:18:51.108Z,33.53
2018-12-18T02:19:27.551Z,35.08
2018-12-18T02:20:04.917Z,33.42
2018-12-18T02:20:41.401Z,33.40
2018-12-18T02:21:18.111Z,33.55
2018-12-18T02:21:54.155Z,35.50
2018-12-18T02:22:30.185Z,33.75
2018-12-18T02:23:06.611Z,34.78
2018-12-18T02:23:42.668Z,35.92
2018-12-18T02:24:19.103Z,34.35
2018-12-18T02:24:55.553Z,33.92
2018-12-18T02:25:32.011Z,34.83
2018-12-18T02:26:08.483Z,34.92
2018-12-18T02:26:44.919Z,35.63
2018-12-18T02:27:20.983Z,35.68
2018-12-18T02:27:57.111Z,34.48
2018-12-18T02:28:33.135Z,34.08
2018-12-18T02:29:09.552Z,34.67
2018-12-18T02:29:45.607Z,33.58
2018-12-18T02:30:21.702Z,34.92
2018-12-18T02:30:57.785Z,34.92
2018-12-18T02:31:34.069Z,34.92
2018-12-18T02:32:10.127Z,35.92
2018-12-18T02:32:46.232Z,34.63
2018-12-18T02:33:22.308Z,36.38
2018-12-18T02:33:58.339Z,35.73
2018-12-18T02:34:34.416Z,37.13
2018-12-18T02:35:10.476Z,37.08
2018-12-18T02:35:46.503Z,33.65
2018-12-18T02:36:22.533Z,34.25
2018-12-18T02:36:58.579Z,35.25
2018-12-18T02:37:34.633Z,34.30
2018-12-18T02:38:10.654Z,35.80
2018-12-18T02:38:46.730Z,33.90
2018-12-18T02:39:23.269Z,34.43
2018-12-18T02:39:59.308Z,36.23
2018-12-18T02:40:35.355Z,34.83
2018-12-18T02:41:11.814Z,36.15
2018-12-18T02:41:47.847Z,34.80
2018-12-18T02:42:24.704Z,35.70
2018-12-18T02:43:00.783Z,35.52
2018-12-18T02:43:36.799Z,36.05
2018-12-18T02:44:12.843Z,36.40
2018-12-18T02:44:48.862Z,35.98
2018-12-18T02:45:24.889Z,36.05
2018-12-18T02:46:00.919Z,34.92
2018-12-18T02:46:36.965Z,36.63
2018-12-18T02:47:13.435Z,35.78
2018-12-18T02:47:49.892Z,34.35
2018-12-18T02:48:26.324Z,34.10
2018-12-18T02:49:02.339Z,37.10
2018-12-18T02:49:38.387Z,36.20
2018-12-18T02:50:14.410Z,36.58
2018-12-18T02:50:50.863Z,34.92
2018-12-18T02:51:27.312Z,37.33
2018-12-18T02:52:03.359Z,36.20
2018-12-18T02:52:39.788Z,35.58
2018-12-18T02:53:15.791Z,35.85
2018-12-18T02:53:51.900Z,35.60
2018-12-18T02:54:28.131Z,35.00
2018-12-18T02:55:05.001Z,34.95
2018-12-18T02:55:41.431Z,34.48
2018-12-18T02:56:17.451Z,34.40
2018-12-18T02:56:53.475Z,35.88
2018-12-18T02:57:29.543Z,37.88
2018-12-18T02:58:05.608Z,36.42
2018-12-18T02:58:41.635Z,35.78
2018-12-18T02:59:18.105Z,34.80
2018-12-18T02:59:54.748Z,34.65
2018-12-18T03:00:32.705Z,36.33
2018-12-18T03:01:08.724Z,36.00
2018-12-18T03:01:44.765Z,34.75
2018-12-18T03:02:20.815Z,35.15
2018-12-18T03:02:57.191Z,37.13
2018-12-18T03:03:33.231Z,35.78
2018-12-18T03:04:09.269Z,35.92
2018-12-18T03:04:45.283Z,37.58
2018-12-18T03:05:22.151Z,35.88
2018-12-18T03:05:58.929Z,35.03
2018-12-18T03:06:35.763Z,35.38
2018-12-18T03:07:12.206Z,36.83
2018-12-18T03:07:48.303Z,35.05
2018-12-18T03:08:24.415Z,34.83
2018-12-18T03:09:00.484Z,37.08
2018-12-18T03:09:36.534Z,35.90
2018-12-18T03:10:13.545Z,35.78
2018-12-18T03:10:50.032Z,35.33
2018-12-18T03:11:26.129Z,35.63
2018-12-18T03:12:04.093Z,36.03
2018-12-18T03:12:40.605Z,37.00
2018-12-18T03:13:17.055Z,36.50
2018-12-18T03:13:53.123Z,36.05
2018-12-18T03:14:30.039Z,36.75
2018-12-18T03:15:07.132Z,36.13
2018-12-18T03:15:43.184Z,36.33
2018-12-18T03:16:19.194Z,34.88
2018-12-18T03:16:55.641Z,36.15
2018-12-18T03:17:32.338Z,36.08
2018-12-18T03:18:08.532Z,35.65
2018-12-18T03:18:44.761Z,35.75
2018-12-18T03:19:21.730Z,36.75
2018-12-18T03:19:57.754Z,37.25
2018-12-18T03:20:33.800Z,35.05
2018-12-18T03:21:10.252Z,36.28
2018-12-18T03:21:46.289Z,36.85
2018-12-18T03:22:22.959Z,35.88
2018-12-18T03:22:59.001Z,38.33
2018-12-18T03:23:35.011Z,35.80
2018-12-18T03:24:11.076Z,34.50
2018-12-18T03:24:47.106Z,36.45
2018-12-18T03:25:23.183Z,37.33
2018-12-18T03:26:00.032Z,33.53
2018-12-18T03:26:36.038Z,37.45
2018-12-18T03:27:12.460Z,35.80
2018-12-18T03:27:48.900Z,36.38
2018-12-18T03:28:24.988Z,36.08
2018-12-18T03:29:01.379Z,36.88
2018-12-18T03:29:37.423Z,35.00
2018-12-18T03:30:13.885Z,36.08
2018-12-18T03:30:49.886Z,34.58
2018-12-18T03:31:27.297Z,36.58
2018-12-18T03:32:08.761Z,37.73
2018-12-18T03:32:49.524Z,35.00
2018-12-18T03:33:25.841Z,36.75
2018-12-18T03:34:02.458Z,37.35
2018-12-18T03:34:38.869Z,36.48
2018-12-18T03:35:15.287Z,34.63
2018-12-18T03:35:51.335Z,38.53
2018-12-18T03:36:27.363Z,37.67
2018-12-18T03:37:03.771Z,37.78
2018-12-18T03:37:39.765Z,35.95
2018-12-18T03:38:15.776Z,36.53
2018-12-18T03:38:51.819Z,36.85
2018-12-18T03:39:28.403Z,36.65
2018-12-18T03:40:06.324Z,35.95
2018-12-18T03:40:43.149Z,37.00
2018-12-18T03:41:19.604Z,36.25
2018-12-18T03:41:55.619Z,38.00
2018-12-18T03:42:31.665Z,36.23
2018-12-18T03:43:07.723Z,37.95
2018-12-18T03:43:44.181Z,38.10
2018-12-18T03:44:20.219Z,34.98
2018-12-18T03:44:56.607Z,35.48
2018-12-18T03:45:32.676Z,36.98
2018-12-18T03:46:09.175Z,35.48
2018-12-18T03:46:45.184Z,37.10
2018-12-18T03:47:21.527Z,37.25
2018-12-18T03:47:57.979Z,36.88
2018-12-18T03:48:33.990Z,38.67
2018-12-18T03:49:10.050Z,35.65
2018-12-18T03:49:46.469Z,37.00
2018-12-18T03:50:22.929Z,34.75
2018-12-18T03:50:59.414Z,35.10
2018-12-18T03:51:35.454Z,37.48
2018-12-18T03:52:11.506Z,36.50
2018-12-18T03:52:47.581Z,37.17
2018-12-18T03:53:23.660Z,35.68
2018-12-18T03:54:00.147Z,37.35
2018-12-18T03:54:36.196Z,33.92
2018-12-18T03:55:12.242Z,36.20
2018-12-18T03:55:48.261Z,36.98
2018-12-18T03:56:25.170Z,36.33
2018-12-18T03:57:01.218Z,35.92
2018-12-18T03:57:37.342Z,36.80
2018-12-18T03:58:13.457Z,36.15
2018-12-18T03:58:49.895Z,36.42
2018-12-18T03:59:25.938Z,35.10
2018-12-18T04:00:02.446Z,36.33
2018-12-18T04:00:38.511Z,37.53
2018-12-18T04:01:14.552Z,37.35
2018-12-18T04:01:50.637Z,36.15
2018-12-18T04:02:27.084Z,34.33
2018-12-18T04:03:03.559Z,37.17
2018-12-18T04:03:39.958Z,36.53
2018-12-18T04:04:16.373Z,37.63
2018-12-18T04:04:52.407Z,37.28
2018-12-18T04:05:29.229Z,35.00
2018-12-18T04:06:05.273Z,36.38
2018-12-18T04:06:41.294Z,37.05
2018-12-18T04:07:17.319Z,37.05
2018-12-18T04:07:53.348Z,35.78
2018-12-18T04:08:29.422Z,35.73
2018-12-18T04:09:07.296Z,36.98
2018-12-18T04:09:43.333Z,38.48
2018-12-18T04:10:20.153Z,36.48
2018-12-18T04:10:56.600Z,36.80
2018-12-18T04:11:32.673Z,34.80
2018-12-18T04:12:12.149Z,36.75
2018-12-18T04:12:48.597Z,34.00
2018-12-18T04:13:24.671Z,35.95
2018-12-18T04:14:00.712Z,35.08
2018-12-18T04:14:37.250Z,34.23
2018-12-18T04:15:14.386Z,38.02
2018-12-18T04:15:50.423Z,36.15
2018-12-18T04:16:26.466Z,35.73
2018-12-18T04:17:02.476Z,36.65
2018-12-18T04:17:39.079Z,37.23
2018-12-18T04:18:15.172Z,35.58
2018-12-18T04:18:51.212Z,35.68
2018-12-18T04:19:27.230Z,36.00
2018-12-18T04:20:03.802Z,37.30
2018-12-18T04:20:39.837Z,33.15
2018-12-18T04:21:16.255Z,35.13
2018-12-18T04:21:52.641Z,36.42
2018-12-18T04:22:28.685Z,35.20
2018-12-18T04:23:04.716Z,34.33
2018-12-18T04:23:40.759Z,37.30
2018-12-18T04:24:17.184Z,36.73
2018-12-18T04:24:53.200Z,35.95
2018-12-18T04:25:29.621Z,37.73
2018-12-18T04:26:05.662Z,36.58
2018-12-18T04:26:41.683Z,35.05
2018-12-18T04:27:17.687Z,35.55
2018-12-18T04:27:53.726Z,34.30
2018-12-18T04:28:30.159Z,35.35
2018-12-18T04:29:06.206Z,36.45
2018-12-18T04:29:42.272Z,35.08
2018-12-18T04:30:18.326Z,35.03
2018-12-18T04:30:55.160Z,34.90
2018-12-18T04:31:31.576Z,35.52
2018-12-18T04:32:07.765Z,34.78
2018-12-18T04:32:43.787Z,35.17
2018-12-18T04:33:19.815Z,35.52
2018-12-18T04:33:55.860Z,34.40
2018-12-18T04:34:31.888Z,34.80
2018-12-18T04:35:08.718Z,35.73
2018-12-18T04:35:44.738Z,36.30
2018-12-18T04:36:21.145Z,35.05
2018-12-18T04:36:57.257Z,37.28
2018-12-18T04:42:34.774Z,30.90
2018-12-18T04:43:11.214Z,31.70
2018-12-18T04:43:47.242Z,32.67
2018-12-18T04:44:24.006Z,32.88
2018-12-18T04:45:00.403Z,35.38
2018-12-18T04:45:36.435Z,34.13
2018-12-18T04:46:12.577Z,33.15
2018-12-18T04:46:48.582Z,33.18
2018-12-18T04:47:24.677Z,34.78
2018-12-18T04:48:00.710Z,33.60
2018-12-18T04:48:36.717Z,32.90
2018-12-18T04:49:12.691Z,35.17
2018-12-18T04:49:48.720Z,35.20
2018-12-18T04:50:25.206Z,33.90
2018-12-18T04:51:01.607Z,34.00
2018-12-18T04:51:37.620Z,35.25
2018-12-18T04:52:14.032Z,34.38
2018-12-18T04:52:50.064Z,34.92
2018-12-18T04:53:26.479Z,33.40
2018-12-18T04:54:02.554Z,34.08
2018-12-18T04:54:39.004Z,35.60
2018-12-18T04:55:15.023Z,34.50
2018-12-18T04:55:51.055Z,36.42
2018-12-18T04:56:27.071Z,35.17
2018-12-18T04:57:03.912Z,35.10
2018-12-18T04:57:40.327Z,35.33
2018-12-18T04:58:16.359Z,34.58
2018-12-18T04:58:52.398Z,34.60
2018-12-18T04:59:28.434Z,33.25
2018-12-18T05:00:06.295Z,35.70
2018-12-18T05:00:42.368Z,34.55
2018-12-18T05:01:18.859Z,36.60
2018-12-18T05:01:54.896Z,34.38
2018-12-18T05:02:30.937Z,35.33
2018-12-18T05:03:13.599Z,35.20
2018-12-18T05:03:49.644Z,34.70
2018-12-18T05:04:25.687Z,32.45
2018-12-18T05:05:01.732Z,33.63
2018-12-18T05:05:37.781Z,34.78
2018-12-18T05:06:13.821Z,34.05
2018-12-18T05:06:50.270Z,35.00
2018-12-18T05:07:26.869Z,33.38
2018-12-18T05:08:03.314Z,36.40
2018-12-18T05:08:39.331Z,34.13
2018-12-18T05:09:15.953Z,35.63
2018-12-18T05:09:51.971Z,35.00
2018-12-18T05:10:28.412Z,32.90
2018-12-18T05:11:04.483Z,34.03
2018-12-18T05:11:40.906Z,34.05
2018-12-18T05:12:16.957Z,34.18
2018-12-18T05:12:52.996Z,33.48
2018-12-18T05:13:30.006Z,34.75
2018-12-18T05:14:06.216Z,35.70
2018-12-18T05:14:42.258Z,34.00
2018-12-18T05:15:18.673Z,34.05
2018-12-18T05:15:55.218Z,33.48
2018-12-18T05:16:31.347Z,33.98
2018-12-18T05:17:07.467Z,35.52
2018-12-18T05:17:43.512Z,35.17
2018-12-18T05:18:19.559Z,36.28
2018-12-18T05:18:56.028Z,34.90
2018-12-18T05:19:32.751Z,34.88
2018-12-18T05:20:09.635Z,35.23
2018-12-18T05:20:46.113Z,32.88
2018-12-18T05:21:22.847Z,33.85
2018-12-18T05:21:58.894Z,32.73
2018-12-18T05:22:34.942Z,35.20
2018-12-18T05:23:10.965Z,33.23
2018-12-18T05:23:46.987Z,33.83
2018-12-18T05:24:23.057Z,34.05
2018-12-18T05:24:59.127Z,34.70
2018-12-18T05:25:35.146Z,34.73
2018-12-18T05:26:11.447Z,34.85
2018-12-18T05:26:47.539Z,32.80
2018-12-18T05:27:24.044Z,33.30
2018-12-18T05:28:00.083Z,31.17
2018-12-18T05:28:36.134Z,34.05
2018-12-18T05:29:12.199Z,37.38
2018-12-18T05:29:48.302Z,32.70
2018-12-18T05:30:24.829Z,33.38
2018-12-18T05:31:00.889Z,34.80
2018-12-18T05:31:36.968Z,33.40
2018-12-18T05:32:13.430Z,33.33
2018-12-18T05:32:49.453Z,33.48
2018-12-18T05:33:25.498Z,31.57
2018-12-18T05:34:01.554Z,34.45
2018-12-18T05:34:37.561Z,34.85
2018-12-18T05:35:13.628Z,34.53
2018-12-18T05:35:49.699Z,32.98
2018-12-18T05:36:26.312Z,35.17
2018-12-18T05:37:02.807Z,31.90
2018-12-18T05:37:38.862Z,33.53
2018-12-18T05:38:14.886Z,32.38
2018-12-18T05:38:51.247Z,35.00
2018-12-18T05:39:27.302Z,33.10
2018-12-18T05:40:04.483Z,33.02
2018-12-18T05:40:41.357Z,34.27
2018-12-18T05:41:18.226Z,34.45
2018-12-18T05:41:54.271Z,33.23
2018-12-18T05:42:30.693Z,34.23
2018-12-18T05:43:07.081Z,34.83
2018-12-18T05:43:43.448Z,32.55
2018-12-18T05:44:19.481Z,35.63
2018-12-18T05:44:55.524Z,35.63
2018-12-18T05:45:31.976Z,32.35
2018-12-18T05:46:08.455Z,36.28
2018-12-18T05:46:44.551Z,33.83
2018-12-18T05:47:20.604Z,34.00
2018-12-18T05:47:56.683Z,33.15
2018-12-18T05:48:33.090Z,33.95
2018-12-18T05:49:09.089Z,35.78
2018-12-18T05:49:45.140Z,32.17
2018-12-18T05:50:21.650Z,33.98
2018-12-18T05:50:58.144Z,33.18
2018-12-18T05:51:34.199Z,33.85
2018-12-18T05:52:10.282Z,35.25
2018-12-18T05:52:46.356Z,34.80
2018-12-18T05:53:22.448Z,33.78
2018-12-18T05:53:58.490Z,32.35
2018-12-18T05:54:34.928Z,36.03
2018-12-18T05:55:11.360Z,34.55
2018-12-18T05:55:47.430Z,34.38
2018-12-18T05:56:23.481Z,34.70
2018-12-18T05:56:59.566Z,33.45
2018-12-18T05:57:36.072Z,34.55
2018-12-18T05:58:12.606Z,34.45
2018-12-18T05:58:55.360Z,34.08
2018-12-18T05:59:31.418Z,35.10
2018-12-18T06:00:08.702Z,33.85
2018-12-18T06:00:44.810Z,36.08
2018-12-18T06:01:20.898Z,34.85
2018-12-18T06:01:57.327Z,35.68
2018-12-18T06:02:33.388Z,34.23
2018-12-18T06:03:09.854Z,33.63
2018-12-18T06:03:45.914Z,35.68
2018-12-18T06:04:22.041Z,33.48
2018-12-18T06:05:03.175Z,34.25
2018-12-18T06:05:36.080Z,35.45
2018-12-18T06:06:12.504Z,36.75
2018-12-18T06:06:48.910Z,37.98
2018-12-18T06:07:24.934Z,37.45
2018-12-18T06:08:00.986Z,37.28
2018-12-18T06:08:36.996Z,36.60
2018-12-18T06:09:13.017Z,38.23
2018-12-18T06:09:49.054Z,36.68
2018-12-18T06:10:25.111Z,33.83
2018-12-18T06:11:01.280Z,33.65
2018-12-18T06:11:37.338Z,36.80
2018-12-18T06:12:13.795Z,36.40
2018-12-18T06:12:50.602Z,36.95
2018-12-18T06:13:26.630Z,38.70
2018-12-18T06:14:02.680Z,36.85
2018-12-18T06:14:38.726Z,35.78
2018-12-18T06:15:15.281Z,36.50
2018-12-18T06:15:51.374Z,37.28
2018-12-18T06:16:27.424Z,39.08
2018-12-18T06:17:03.874Z,40.10
2018-12-18T06:17:40.374Z,39.78
2018-12-18T06:18:16.392Z,39.00
2018-12-18T06:18:52.452Z,38.25
2018-12-18T06:19:28.496Z,39.03
2018-12-18T06:20:05.680Z,36.55
2018-12-18T06:20:41.722Z,38.05
2018-12-18T06:21:18.158Z,35.68
2018-12-18T06:21:54.182Z,36.88
2018-12-18T06:22:30.601Z,37.73
2018-12-18T06:23:06.658Z,42.15
2018-12-18T06:23:42.692Z,41.05
2018-12-18T06:24:18.734Z,40.65
2018-12-18T06:24:54.778Z,40.33
2018-12-18T06:25:30.896Z,39.48
2018-12-18T06:26:07.225Z,39.67
2018-12-18T06:26:43.306Z,37.95
2018-12-18T06:27:19.356Z,37.08
2018-12-18T06:27:55.382Z,42.35
2018-12-18T06:28:31.403Z,39.78
2018-12-18T06:29:07.828Z,39.13
2018-12-18T06:29:43.879Z,39.55
2018-12-18T06:30:19.919Z,40.80
2018-12-18T06:30:55.960Z,37.48
2018-12-18T06:31:31.982Z,36.53
2018-12-18T06:32:08.129Z,37.80
2018-12-18T06:32:44.147Z,37.40
2018-12-18T06:33:20.570Z,39.63
2018-12-18T06:33:57.010Z,39.95
2018-12-18T06:34:33.028Z,39.23
2018-12-18T06:35:10.483Z,39.60
2018-12-18T06:35:47.809Z,38.23
2018-12-18T06:36:23.831Z,39.35
2018-12-18T06:36:59.858Z,40.88
2018-12-18T06:37:35.885Z,39.13
2018-12-18T06:38:12.749Z,38.60
2018-12-18T06:38:48.792Z,36.10
2018-12-18T06:39:25.136Z,38.80
2018-12-18T06:40:01.510Z,35.50
2018-12-18T06:40:37.512Z,39.30
2018-12-18T06:41:14.388Z,38.85
2018-12-18T06:41:50.818Z,38.08
2018-12-18T06:42:26.909Z,36.85
2018-12-18T06:43:03.357Z,36.75
2018-12-18T06:43:39.376Z,37.33
2018-12-18T06:44:15.428Z,38.85
2018-12-18T06:44:51.520Z,37.73
2018-12-18T06:45:27.544Z,35.13
2018-12-18T06:46:04.738Z,36.65
2018-12-18T06:46:40.778Z,36.95
2018-12-18T06:47:16.931Z,35.25
2018-12-18T06:47:52.988Z,37.98
2018-12-18T06:48:29.014Z,37.50
2018-12-18T06:49:05.062Z,36.55
2018-12-18T06:49:41.110Z,36.53
2018-12-18T06:50:17.158Z,37.33
2018-12-18T06:50:53.178Z,36.95
2018-12-18T06:51:29.703Z,38.60
2018-12-18T06:52:06.183Z,36.48
2018-12-18T06:52:42.230Z,38.58
2018-12-18T06:53:18.268Z,36.88
2018-12-18T06:53:54.701Z,37.63
2018-12-18T06:54:30.746Z,38.85
2018-12-18T06:55:07.608Z,38.60
2018-12-18T06:55:43.625Z,38.35
2018-12-18T06:56:19.670Z,39.88
2018-12-18T06:56:55.696Z,38.42
2018-12-18T06:57:32.102Z,40.12
2018-12-18T06:58:08.470Z,40.30
2018-12-18T06:58:44.515Z,40.60
2018-12-18T06:59:20.554Z,39.08
2018-12-18T06:59:56.638Z,37.28
2018-12-18T07:00:32.729Z,38.75
2018-12-18T07:01:09.151Z,37.10
2018-12-18T07:01:45.598Z,37.63
2018-12-18T07:02:22.018Z,37.25
2018-12-18T07:02:58.058Z,38.53
2018-12-18T07:03:34.479Z,37.25
2018-12-18T07:04:10.542Z,36.55
2018-12-18T07:04:46.612Z,37.35
2018-12-18T07:05:23.434Z,37.45
2018-12-18T07:05:59.475Z,37.23
2018-12-18T07:06:35.509Z,38.60
2018-12-18T07:07:11.587Z,38.58
2018-12-18T07:07:48.034Z,38.05
2018-12-18T07:08:24.458Z,36.25
2018-12-18T07:09:00.466Z,37.70
2018-12-18T07:09:36.857Z,37.33
2018-12-18T07:10:13.315Z,38.25
2018-12-18T07:10:49.778Z,38.53
2018-12-18T07:11:25.846Z,40.23
2018-12-18T07:12:01.893Z,38.53
2018-12-18T07:12:37.939Z,38.15
2018-12-18T07:13:13.979Z,38.85
2018-12-18T07:13:50.007Z,40.15
2018-12-18T07:14:26.078Z,38.58
2018-12-18T07:15:02.102Z,39.78
2018-12-18T07:15:38.160Z,39.42
2018-12-18T07:16:14.227Z,39.20
2018-12-18T07:16:50.246Z,38.42
2018-12-18T07:17:26.666Z,39.67
2018-12-18T07:18:03.101Z,37.20
2018-12-18T07:18:39.127Z,38.55
2018-12-18T07:19:15.147Z,38.60
2018-12-18T07:19:51.188Z,39.40
2018-12-18T07:20:27.626Z,41.92
2018-12-18T07:21:04.062Z,39.78
2018-12-18T07:21:41.885Z,39.55
2018-12-18T07:22:18.413Z,39.65
2018-12-18T07:22:54.855Z,38.85
2018-12-18T07:23:31.205Z,41.02
2018-12-18T07:24:13.780Z,39.25
2018-12-18T07:24:45.328Z,40.85
2018-12-18T07:25:21.777Z,40.38
2018-12-18T07:25:58.623Z,41.28
2018-12-18T07:26:36.080Z,39.63
2018-12-18T07:27:12.114Z,38.30
2018-12-18T07:27:48.175Z,38.40
2018-12-18T07:28:24.589Z,38.17
2018-12-18T07:29:00.990Z,39.40
2018-12-18T07:29:37.003Z,37.53
2018-12-18T07:30:13.862Z,39.23
2018-12-18T07:30:50.203Z,39.05
2018-12-18T07:31:26.271Z,38.53
2018-12-18T07:32:02.332Z,38.78
2018-12-18T07:32:38.395Z,39.55
2018-12-18T07:33:14.825Z,40.55
2018-12-18T07:33:50.840Z,40.88
2018-12-18T07:34:33.244Z,39.40
2018-12-18T07:35:07.469Z,40.98
2018-12-18T07:35:43.478Z,40.65
2018-12-18T07:36:19.503Z,39.92
2018-12-18T07:36:55.962Z,40.50
2018-12-18T07:37:31.987Z,41.08
2018-12-18T07:38:08.418Z,39.95
2018-12-18T07:38:44.907Z,38.45
2018-12-18T07:39:21.320Z,39.75
2018-12-18T07:39:57.763Z,40.60
2018-12-18T07:40:34.199Z,41.68
2018-12-18T07:41:10.654Z,39.25
2018-12-18T07:41:47.391Z,40.50
2018-12-18T07:42:23.495Z,38.88
2018-12-18T07:42:59.567Z,40.10
2018-12-18T07:43:35.991Z,40.63
2018-12-18T07:44:12.084Z,40.10
2018-12-18T07:44:48.111Z,39.45
2018-12-18T07:45:24.175Z,39.27
2018-12-18T07:46:00.547Z,37.93
2018-12-18T07:46:37.045Z,39.42
2018-12-18T07:47:13.385Z,38.83
2018-12-18T07:47:49.433Z,38.85
2018-12-18T07:48:25.477Z,40.05
2018-12-18T07:49:01.523Z,40.63
2018-12-18T07:49:38.257Z,40.23
2018-12-18T07:50:14.295Z,40.50
2018-12-18T07:50:50.719Z,38.98
2018-12-18T07:51:26.763Z,39.23
2018-12-18T07:52:03.237Z,41.15
2018-12-18T07:52:39.635Z,39.90
2018-12-18T07:53:15.659Z,38.55